Terminal Aerodrome Forecast
Issued by NWS Sioux Falls, SD

Home | Current Version | Previous Version | Graphics & Text | Print | Product List | Glossary On
Versions: 1 2 3 4 5 6 7 8 9 10 11 12 13 14 15
000
FTUS43 KFSD 181700
TAFFSD
TAF
KFSD 181729Z 1818/1918 16019G26KT P6SM FEW200
     FM182100 16022G32KT P6SM FEW050
     FM190130 17019G26KT P6SM FEW050
     FM191000 18016G22KT P6SM BKN150
     FM191700 23010KT P6SM SCT040 BKN120=

USA.gov is the U.S. government's official web portal to all federal, state and local government web resources and services.